Country
Station

 

Weather  for  Lann Bihoue  -  France    France

  
9 °C (48 °F)
    
 
 

Current METAR for Lann Bihoue is :

LFRH 192330Z AUTO 29001KT 9999 BKN024 BKN044 09/08 Q1033 TEMPO 3000 BR

 

This is a report for Lann Bihoue - France.
 
The report was made 24 minutes ago, at 23:30 UTC .
The wind was blowing at a speed of 0.5 meters per second (1.2 miles per hour) from west/northwest (290°).
 
The temperature was 9 °C (48 °F), with a dew-point at 8 °C (46 °F).
The atmospheric pressure was 1033 hPa (30.50 inHg).
The relative humidity was 93.4%.
 
There were broken clouds at a height of 732 meters (2400 feet) and broken clouds at a height of 1341 meters (4400 feet).
 
The overall visibility was greater than 10 kilometers (6.2 miles).
 

 
 
 
 

Country :   A   B   C   D   E   F   G   H   I   J   K   L   M   N   O   P   Q   R   S   T   U   V   W   Y   Z

 

Site Info  |  Disclaimer  |  Credits  |  Privacy
Contact us  |  Add to favorites
© 2013-2019 METARs - All rights reserved